Time;durP1;ratioP1;P1;durP2;ratioP2;P2;SDS_P1;SDS_P2;PMS_P1;PMS_P2;Temp;Humidity;BMP_temperature;BMP_pressure;BME280_temperature;BME280_humidity;BME280_pressure;Samples;Min_cycle;Max_cycle;Signal;HPM_P1;HPM_P2
2022/04/08 00:00:03;;;;;;;0.80;0.57;;;;;;;;;;5112475;28;20219;-57
2022/04/08 00:02:30;;;;;;;1.65;0.70;;;;;;;;;;5099087;28;20467;-57
2022/04/08 00:04:58;;;;;;;0.93;0.57;;;;;;;;;;5099504;28;20208;-57
2022/04/08 00:07:25;;;;;;;0.98;0.70;;;;;;;;;;5098913;28;20235;-56
2022/04/08 00:09:54;;;;;;;0.80;0.52;;;;;;;;;;5099532;28;20218;-57
2022/04/08 00:12:22;;;;;;;1.02;0.50;;;;;;;;;;5098942;28;20210;-57
2022/04/08 00:14:49;;;;;;;0.80;0.60;;;;;;;;;;5098611;28;20298;-57
2022/04/08 00:17:16;;;;;;;1.05;0.55;;;;;;;;;;5098781;28;20231;-57
2022/04/08 00:19:43;;;;;;;1.30;0.60;;;;;;;;;;5098993;28;20583;-58
2022/04/08 00:22:11;;;;;;;0.73;0.50;;;;;;;;;;5099528;28;20223;-57
2022/04/08 00:24:39;;;;;;;0.82;0.50;;;;;;;;;;5098679;28;20617;-57
2022/04/08 00:27:07;;;;;;;0.50;0.40;;;;;;;;;;5097985;28;20203;-58
2022/04/08 00:29:35;;;;;;;1.27;0.50;;;;;;;;;;5098578;28;20204;-57
2022/04/08 00:32:02;;;;;;;1.23;0.52;;;;;;;;;;5098054;28;20249;-58
2022/04/08 00:34:29;;;;;;;0.90;0.50;;;;;;;;;;5098975;28;20196;-57
2022/04/08 00:36:57;;;;;;;0.77;0.50;;;;;;;;;;5099590;28;20579;-57
2022/04/08 00:39:25;;;;;;;0.82;0.47;;;;;;;;;;5111910;28;20206;-57
2022/04/08 00:41:52;;;;;;;0.93;0.60;;;;;;;;;;5101741;28;20457;-57
2022/04/08 00:44:21;;;;;;;0.90;0.68;;;;;;;;;;5098630;28;20223;-57
2022/04/08 00:46:48;;;;;;;0.70;0.47;;;;;;;;;;5113606;28;20257;-57
2022/04/08 00:49:16;;;;;;;1.02;0.40;;;;;;;;;;5118305;28;20234;-57
2022/04/08 00:51:43;;;;;;;0.70;0.70;;;;;;;;;;5118284;28;20457;-56
2022/04/08 00:54:11;;;;;;;0.95;0.60;;;;;;;;;;5118120;28;20187;-58
2022/04/08 00:56:40;;;;;;;0.95;0.50;;;;;;;;;;5118184;28;20213;-57
2022/04/08 00:59:08;;;;;;;0.82;0.50;;;;;;;;;;5115745;28;20191;-57
2022/04/08 01:01:36;;;;;;;1.25;0.60;;;;;;;;;;5098396;28;20196;-58
2022/04/08 01:04:04;;;;;;;1.00;0.63;;;;;;;;;;5097871;28;20203;-58
2022/04/08 01:06:31;;;;;;;0.70;0.50;;;;;;;;;;5106006;28;20206;-57
2022/04/08 01:08:59;;;;;;;1.58;0.60;;;;;;;;;;5107632;28;20305;-57
2022/04/08 01:11:26;;;;;;;1.27;0.60;;;;;;;;;;5102736;28;20211;-57
2022/04/08 01:13:53;;;;;;;1.05;0.55;;;;;;;;;;5117297;28;20199;-57
2022/04/08 01:16:21;;;;;;;0.90;0.40;;;;;;;;;;5107700;28;20484;-57
2022/04/08 01:18:49;;;;;;;0.75;0.45;;;;;;;;;;5097459;28;20559;-58
2022/04/08 01:21:17;;;;;;;0.80;0.50;;;;;;;;;;5097475;28;20204;-57
2022/04/08 01:23:49;;;;;;;0.60;0.43;;;;;;;;;;5097792;28;20203;-57
2022/04/08 01:26:17;;;;;;;1.02;0.50;;;;;;;;;;5116163;28;20211;-58
2022/04/08 01:28:45;;;;;;;1.00;0.47;;;;;;;;;;5116192;28;20230;-58
2022/04/08 01:31:13;;;;;;;1.45;0.50;;;;;;;;;;5117563;28;20582;-57
2022/04/08 01:33:40;;;;;;;1.10;0.60;;;;;;;;;;5117740;28;20199;-57
2022/04/08 01:36:09;;;;;;;0.80;0.45;;;;;;;;;;5117104;28;20199;-57
2022/04/08 01:38:36;;;;;;;0.90;0.60;;;;;;;;;;5105984;28;20196;-58
2022/04/08 01:41:04;;;;;;;1.27;0.60;;;;;;;;;;5112390;28;20209;-58
2022/04/08 01:43:32;;;;;;;1.05;0.43;;;;;;;;;;5114975;28;20470;-56
2022/04/08 01:46:00;;;;;;;0.60;0.45;;;;;;;;;;5116302;28;20199;-57
2022/04/08 01:48:27;;;;;;;1.20;0.50;;;;;;;;;;5117620;28;20242;-57
2022/04/08 01:50:55;;;;;;;1.00;0.55;;;;;;;;;;5101116;28;20455;-58
2022/04/08 01:53:22;;;;;;;1.40;0.82;;;;;;;;;;5097575;28;20199;-57
2022/04/08 01:55:49;;;;;;;0.60;0.30;;;;;;;;;;5097375;28;20479;-57
2022/04/08 01:58:17;;;;;;;1.27;0.50;;;;;;;;;;5102094;28;20200;-57
2022/04/08 02:00:45;;;;;;;0.68;0.40;;;;;;;;;;5096732;28;20200;-57
2022/04/08 02:03:15;;;;;;;1.75;0.40;;;;;;;;;;5097460;28;20211;-58
2022/04/08 02:05:42;;;;;;;1.50;0.50;;;;;;;;;;5097045;28;20239;-57
2022/04/08 02:08:10;;;;;;;0.82;0.40;;;;;;;;;;5096581;28;20644;-57
2022/04/08 02:10:37;;;;;;;0.43;0.43;;;;;;;;;;5097332;28;20702;-57
2022/04/08 02:13:05;;;;;;;1.15;0.30;;;;;;;;;;5096825;28;20203;-57
2022/04/08 02:15:33;;;;;;;0.98;0.57;;;;;;;;;;5097288;28;20204;-57
2022/04/08 02:18:02;;;;;;;0.82;0.50;;;;;;;;;;5097133;28;20214;-57
2022/04/08 02:20:30;;;;;;;0.55;0.35;;;;;;;;;;5097252;28;20274;-58
2022/04/08 02:22:57;;;;;;;0.77;0.57;;;;;;;;;;5097103;28;20596;-57
2022/04/08 02:25:25;;;;;;;1.08;0.47;;;;;;;;;;5097397;28;20204;-58
2022/04/08 02:27:53;;;;;;;1.35;0.63;;;;;;;;;;5104362;28;20570;-57
2022/04/08 02:30:20;;;;;;;1.33;0.55;;;;;;;;;;5121159;28;20202;-58
2022/04/08 02:32:48;;;;;;;0.75;0.52;;;;;;;;;;5121191;28;20261;-58
2022/04/08 02:35:17;;;;;;;1.38;0.60;;;;;;;;;;5111504;28;20231;-57
2022/04/08 02:37:44;;;;;;;1.77;0.70;;;;;;;;;;5104634;28;20195;-57
2022/04/08 02:40:12;;;;;;;1.60;0.60;;;;;;;;;;5111800;28;20215;-57
2022/04/08 02:42:40;;;;;;;1.23;0.60;;;;;;;;;;5100004;28;20195;-57
2022/04/08 02:45:07;;;;;;;1.67;0.95;;;;;;;;;;5110077;28;20209;-57
2022/04/08 02:47:41;;;;;;;0.77;0.70;;;;;;;;;;5121031;28;20203;-58
2022/04/08 02:50:08;;;;;;;0.60;0.40;;;;;;;;;;5119749;28;20480;-57
2022/04/08 02:52:37;;;;;;;0.82;0.55;;;;;;;;;;5120501;28;20194;-57
2022/04/08 02:55:05;;;;;;;1.17;0.60;;;;;;;;;;5108933;28;20215;-58
2022/04/08 02:57:33;;;;;;;1.20;0.60;;;;;;;;;;5103398;28;20195;-57
2022/04/08 03:00:00;;;;;;;1.48;0.50;;;;;;;;;;5120335;28;20195;-57
2022/04/08 03:02:28;;;;;;;1.05;0.73;;;;;;;;;;5120562;28;20211;-57
2022/04/08 03:04:55;;;;;;;1.08;0.45;;;;;;;;;;5120166;28;20209;-57
2022/04/08 03:07:23;;;;;;;1.88;0.88;;;;;;;;;;5106363;28;20544;-57
2022/04/08 03:09:51;;;;;;;1.13;0.50;;;;;;;;;;5120289;28;20470;-57
2022/04/08 03:12:19;;;;;;;1.58;0.60;;;;;;;;;;5120337;28;20195;-57
2022/04/08 03:14:46;;;;;;;1.20;0.63;;;;;;;;;;5119782;27;20231;-58
2022/04/08 03:17:14;;;;;;;1.13;0.40;;;;;;;;;;5106301;28;20207;-58
2022/04/08 03:19:41;;;;;;;1.05;0.50;;;;;;;;;;5099839;28;20238;-57
2022/04/08 03:22:08;;;;;;;1.30;0.57;;;;;;;;;;5098713;28;20200;-57
2022/04/08 03:24:36;;;;;;;0.68;0.50;;;;;;;;;;5107174;28;20195;-57
2022/04/08 03:27:05;;;;;;;0.70;0.50;;;;;;;;;;5118637;28;20203;-57
2022/04/08 03:29:32;;;;;;;0.93;0.40;;;;;;;;;;5085302;28;20602;-57
2022/04/08 03:32:00;;;;;;;0.57;0.50;;;;;;;;;;5100476;28;20225;-57
2022/04/08 03:34:27;;;;;;;1.38;0.70;;;;;;;;;;5099594;28;20214;-57
2022/04/08 03:36:55;;;;;;;1.08;0.60;;;;;;;;;;5099444;28;20221;-57
2022/04/08 03:39:22;;;;;;;1.13;0.60;;;;;;;;;;5113754;28;20191;-57
2022/04/08 03:41:50;;;;;;;0.77;0.50;;;;;;;;;;5099748;28;20199;-57
2022/04/08 03:44:18;;;;;;;1.20;0.50;;;;;;;;;;5099124;28;20583;-57
2022/04/08 03:46:46;;;;;;;0.80;0.50;;;;;;;;;;5109355;28;20214;-56
2022/04/08 03:49:15;;;;;;;1.48;0.50;;;;;;;;;;5105024;28;20239;-57
2022/04/08 03:51:42;;;;;;;0.45;0.45;;;;;;;;;;5099760;28;20269;-56
2022/04/08 03:54:10;;;;;;;0.90;0.50;;;;;;;;;;5099252;28;20195;-56
2022/04/08 03:56:37;;;;;;;1.30;0.60;;;;;;;;;;5099535;28;20207;-56
2022/04/08 03:59:05;;;;;;;1.00;0.47;;;;;;;;;;5100179;28;20222;-57
2022/04/08 04:01:33;;;;;;;0.65;0.45;;;;;;;;;;5109506;28;20203;-57
2022/04/08 04:04:01;;;;;;;0.73;0.52;;;;;;;;;;5099221;28;20575;-57
2022/04/08 04:06:28;;;;;;;1.15;0.73;;;;;;;;;;5098483;28;20195;-56
2022/04/08 04:08:56;;;;;;;0.85;0.55;;;;;;;;;;5098697;28;20382;-57
2022/04/08 04:11:23;;;;;;;0.90;0.63;;;;;;;;;;5099414;28;20453;-56
2022/04/08 04:13:50;;;;;;;1.75;0.80;;;;;;;;;;5098827;28;20212;-57
2022/04/08 04:16:18;;;;;;;0.80;0.60;;;;;;;;;;5098527;28;20609;-57
2022/04/08 04:18:47;;;;;;;0.60;0.43;;;;;;;;;;5098855;28;20650;-57
2022/04/08 04:21:15;;;;;;;1.98;0.77;;;;;;;;;;5098250;28;20599;-57
2022/04/08 04:23:43;;;;;;;1.33;0.60;;;;;;;;;;5098075;28;20204;-58
2022/04/08 04:26:10;;;;;;;1.33;0.50;;;;;;;;;;5097657;28;20292;-57
2022/04/08 04:28:38;;;;;;;1.38;0.63;;;;;;;;;;5098069;28;20230;-57
2022/04/08 04:31:06;;;;;;;0.90;0.63;;;;;;;;;;5097606;28;20203;-57
2022/04/08 04:33:33;;;;;;;0.70;0.50;;;;;;;;;;5096921;28;20306;-57
2022/04/08 04:36:02;;;;;;;1.20;0.60;;;;;;;;;;5112298;28;20203;-57
2022/04/08 04:38:30;;;;;;;1.13;0.63;;;;;;;;;;5105181;28;20200;-58
2022/04/08 04:40:57;;;;;;;0.85;0.50;;;;;;;;;;5107729;28;20264;-57
2022/04/08 04:43:24;;;;;;;0.63;0.60;;;;;;;;;;5116523;28;20249;-57
2022/04/08 04:45:52;;;;;;;1.13;0.50;;;;;;;;;;5097864;28;20200;-57
2022/04/08 04:48:19;;;;;;;1.17;0.50;;;;;;;;;;5102144;28;20296;-58
2022/04/08 04:50:47;;;;;;;0.70;0.60;;;;;;;;;;5104953;28;20250;-57
2022/04/08 04:53:16;;;;;;;1.35;0.73;;;;;;;;;;5094598;28;20203;-57
2022/04/08 04:55:43;;;;;;;1.05;0.50;;;;;;;;;;5094295;28;20215;-56
2022/04/08 04:58:12;;;;;;;1.33;0.80;;;;;;;;;;5093989;28;20217;-58
2022/04/08 05:00:40;;;;;;;0.50;0.50;;;;;;;;;;5108209;28;20191;-58
2022/04/08 05:03:11;;;;;;;1.08;0.63;;;;;;;;;;5074545;28;20690;-57
2022/04/08 05:05:38;;;;;;;1.17;0.70;;;;;;;;;;5092317;28;20200;-57
2022/04/08 05:08:07;;;;;;;0.98;0.55;;;;;;;;;;5100909;28;20473;-58
2022/04/08 05:10:36;;;;;;;1.23;0.55;;;;;;;;;;5111739;28;20258;-58
2022/04/08 05:13:03;;;;;;;0.85;0.50;;;;;;;;;;5113032;28;20202;-57
2022/04/08 05:15:32;;;;;;;0.90;0.70;;;;;;;;;;5112331;28;20200;-57
2022/04/08 05:18:00;;;;;;;0.90;0.60;;;;;;;;;;5112779;28;20191;-57
2022/04/08 05:20:27;;;;;;;0.60;0.43;;;;;;;;;;5099219;28;20268;-57
2022/04/08 05:22:55;;;;;;;0.82;0.75;;;;;;;;;;5109991;28;20237;-57
2022/04/08 05:25:22;;;;;;;0.47;0.40;;;;;;;;;;5113025;28;20207;-57
2022/04/08 05:27:51;;;;;;;1.05;0.50;;;;;;;;;;5113860;28;20202;-57
2022/04/08 05:30:19;;;;;;;0.60;0.60;;;;;;;;;;5099174;28;20241;-58
2022/04/08 05:32:46;;;;;;;0.73;0.50;;;;;;;;;;5093380;28;20513;-57
2022/04/08 05:35:14;;;;;;;1.05;0.70;;;;;;;;;;5094528;28;20253;-57
2022/04/08 05:37:43;;;;;;;0.47;0.47;;;;;;;;;;5104740;28;20213;-57
2022/04/08 05:40:11;;;;;;;0.80;0.50;;;;;;;;;;5101680;28;20199;-57
2022/04/08 05:42:39;;;;;;;0.70;0.60;;;;;;;;;;5113913;28;20237;-57
2022/04/08 05:45:09;;;;;;;0.95;0.55;;;;;;;;;;5112159;28;20241;-57
2022/04/08 05:47:36;;;;;;;1.08;0.52;;;;;;;;;;5076984;28;20571;-56
2022/04/08 05:50:05;;;;;;;0.85;0.68;;;;;;;;;;5093182;28;20224;-57
2022/04/08 05:52:32;;;;;;;1.08;0.63;;;;;;;;;;5101551;28;20196;-57
2022/04/08 05:55:00;;;;;;;0.57;0.50;;;;;;;;;;5092937;28;20199;-57
2022/04/08 05:57:27;;;;;;;0.50;0.50;;;;;;;;;;5093425;28;20372;-57
2022/04/08 06:00:00;;;;;;;1.05;0.68;;;;;;;;;;5099561;28;20586;-57
2022/04/08 06:02:29;;;;;;;0.65;0.45;;;;;;;;;;5100563;28;20199;-57
2022/04/08 06:04:56;;;;;;;0.60;0.40;;;;;;;;;;5097515;28;20214;-57
2022/04/08 06:07:25;;;;;;;0.60;0.50;;;;;;;;;;5096749;28;20473;-56
2022/04/08 06:09:52;;;;;;;0.70;0.50;;;;;;;;;;5097074;28;20237;-57
2022/04/08 06:12:20;;;;;;;0.50;0.50;;;;;;;;;;5097605;28;20203;-57
2022/04/08 06:14:47;;;;;;;1.10;0.50;;;;;;;;;;5097944;28;20302;-57
2022/04/08 06:17:15;;;;;;;0.60;0.52;;;;;;;;;;5097544;28;20652;-57
2022/04/08 06:19:46;;;;;;;0.50;0.50;;;;;;;;;;5097622;28;20303;-56
2022/04/08 06:22:14;;;;;;;0.70;0.60;;;;;;;;;;5097632;28;20195;-57
2022/04/08 06:24:41;;;;;;;0.47;0.43;;;;;;;;;;5097595;28;20219;-57
2022/04/08 06:27:09;;;;;;;0.95;0.60;;;;;;;;;;5097644;28;20203;-57
2022/04/08 06:29:36;;;;;;;0.63;0.50;;;;;;;;;;5097862;28;20223;-57
2022/04/08 06:32:04;;;;;;;0.40;0.40;;;;;;;;;;5096702;28;20488;-57
2022/04/08 06:34:32;;;;;;;0.82;0.50;;;;;;;;;;5098314;28;20198;-57
2022/04/08 06:37:01;;;;;;;0.57;0.50;;;;;;;;;;5098053;28;20216;-57
2022/04/08 06:39:28;;;;;;;0.90;0.57;;;;;;;;;;5098871;28;20191;-57
2022/04/08 06:41:56;;;;;;;0.70;0.50;;;;;;;;;;5117973;28;20203;-57
2022/04/08 06:44:23;;;;;;;0.52;0.50;;;;;;;;;;5111449;28;20731;-62
2022/04/08 06:46:51;;;;;;;0.95;0.50;;;;;;;;;;5096431;28;20219;-57
2022/04/08 06:49:19;;;;;;;1.90;0.80;;;;;;;;;;5096638;28;20191;-57
2022/04/08 06:51:47;;;;;;;0.73;0.47;;;;;;;;;;5097091;28;20671;-57
2022/04/08 06:54:16;;;;;;;0.88;0.40;;;;;;;;;;5114913;28;20199;-58
2022/04/08 06:56:43;;;;;;;0.50;0.50;;;;;;;;;;5117134;28;20209;-57
2022/04/08 06:59:12;;;;;;;1.23;0.55;;;;;;;;;;5119114;28;20191;-58
2022/04/08 07:01:39;;;;;;;0.57;0.57;;;;;;;;;;5118714;28;20267;-57
2022/04/08 07:04:06;;;;;;;0.63;0.60;;;;;;;;;;5114880;28;20195;-57
2022/04/08 07:06:34;;;;;;;0.70;0.60;;;;;;;;;;5116311;28;20195;-57
2022/04/08 07:09:01;;;;;;;0.63;0.50;;;;;;;;;;5102062;28;20350;-57
2022/04/08 07:11:30;;;;;;;0.70;0.70;;;;;;;;;;5094933;28;20234;-57
2022/04/08 07:13:58;;;;;;;0.40;0.40;;;;;;;;;;5097016;28;20206;-57
2022/04/08 07:16:25;;;;;;;0.85;0.70;;;;;;;;;;5096342;28;20207;-57
2022/04/08 07:18:52;;;;;;;1.60;0.63;;;;;;;;;;5096156;28;20206;-57
2022/04/08 07:21:21;;;;;;;0.40;0.40;;;;;;;;;;5104302;28;20203;-57
2022/04/08 07:23:49;;;;;;;1.13;0.60;;;;;;;;;;5115164;28;20191;-57
2022/04/08 07:26:20;;;;;;;0.80;0.50;;;;;;;;;;5096946;28;20231;-58
2022/04/08 07:28:49;;;;;;;1.50;0.63;;;;;;;;;;5097654;28;20199;-57
2022/04/08 07:31:16;;;;;;;0.68;0.60;;;;;;;;;;5096495;28;20236;-57
2022/04/08 07:33:43;;;;;;;2.00;0.75;;;;;;;;;;5097241;28;20216;-57
2022/04/08 07:36:11;;;;;;;0.43;0.43;;;;;;;;;;5097241;28;20204;-57
2022/04/08 07:38:39;;;;;;;1.30;0.65;;;;;;;;;;5097275;28;20207;-57
2022/04/08 07:41:06;;;;;;;0.70;0.50;;;;;;;;;;5104273;28;20187;-57
2022/04/08 07:43:34;;;;;;;0.50;0.50;;;;;;;;;;5115230;28;20308;-57
2022/04/08 07:46:03;;;;;;;1.15;0.57;;;;;;;;;;5095880;28;20226;-57
2022/04/08 07:48:31;;;;;;;1.70;0.60;;;;;;;;;;5113092;28;20206;-57
2022/04/08 07:50:59;;;;;;;2.20;0.50;;;;;;;;;;5115850;28;20237;-57
2022/04/08 07:53:26;;;;;;;0.85;0.50;;;;;;;;;;5116341;28;20195;-57
2022/04/08 07:55:54;;;;;;;2.00;0.50;;;;;;;;;;5096373;28;20195;-58
2022/04/08 07:58:21;;;;;;;1.27;0.60;;;;;;;;;;5105835;28;20241;-57
2022/04/08 08:00:51;;;;;;;1.00;0.50;;;;;;;;;;5088157;28;20483;-55
2022/04/08 08:03:20;;;;;;;0.65;0.60;;;;;;;;;;5095270;28;20200;-55
2022/04/08 08:05:47;;;;;;;0.95;0.68;;;;;;;;;;5096005;28;20571;-56
2022/04/08 08:08:15;;;;;;;1.58;0.55;;;;;;;;;;5094826;28;20257;-56
2022/04/08 08:10:42;;;;;;;1.42;0.60;;;;;;;;;;5095533;28;20254;-56
2022/04/08 08:13:10;;;;;;;0.80;0.60;;;;;;;;;;5094846;28;20208;-56
2022/04/08 08:15:37;;;;;;;0.65;0.50;;;;;;;;;;5094248;28;20199;-56
2022/04/08 08:18:05;;;;;;;1.10;0.52;;;;;;;;;;5094787;28;20251;-56
2022/04/08 08:20:34;;;;;;;0.75;0.60;;;;;;;;;;5095181;28;20200;-56
2022/04/08 08:23:02;;;;;;;0.40;0.40;;;;;;;;;;5094969;28;20203;-55
2022/04/08 08:25:29;;;;;;;0.60;0.60;;;;;;;;;;5093453;28;20214;-56
2022/04/08 08:27:59;;;;;;;1.30;0.55;;;;;;;;;;5093842;28;20276;-56
2022/04/08 08:30:29;;;;;;;0.85;0.63;;;;;;;;;;5094529;28;20326;-56
2022/04/08 08:32:56;;;;;;;1.15;0.82;;;;;;;;;;5094610;28;20458;-56
2022/04/08 08:35:25;;;;;;;1.23;0.70;;;;;;;;;;5094834;28;20294;-57
2022/04/08 08:37:54;;;;;;;1.33;0.70;;;;;;;;;;5099878;28;20191;-57
2022/04/08 08:40:23;;;;;;;0.70;0.70;;;;;;;;;;5105045;28;20740;-57
2022/04/08 08:42:51;;;;;;;0.63;0.60;;;;;;;;;;5099925;28;20290;-58
2022/04/08 08:45:20;;;;;;;0.68;0.68;;;;;;;;;;5113936;28;20199;-57
2022/04/08 08:47:48;;;;;;;0.73;0.55;;;;;;;;;;5112324;28;20214;-57
2022/04/08 08:50:18;;;;;;;0.55;0.50;;;;;;;;;;5094338;28;20234;-57
2022/04/08 08:52:45;;;;;;;0.68;0.68;;;;;;;;;;5094213;28;20385;-57
2022/04/08 08:55:14;;;;;;;0.70;0.60;;;;;;;;;;5107934;28;20211;-57
2022/04/08 08:57:42;;;;;;;1.25;0.70;;;;;;;;;;5101962;28;20199;-58
2022/04/08 09:00:12;;;;;;;1.77;0.77;;;;;;;;;;5107470;28;20222;-57
2022/04/08 09:02:40;;;;;;;1.40;0.75;;;;;;;;;;5113829;28;20463;-57
2022/04/08 09:05:18;;;;;;;1.00;0.80;;;;;;;;;;5115075;28;20459;-57
2022/04/08 09:07:53;;;;;;;2.08;0.93;;;;;;;;;;5110196;28;20433;-57
2022/04/08 09:10:26;;;;;;;1.15;0.70;;;;;;;;;;5109614;28;20254;-56
2022/04/08 09:12:54;;;;;;;1.15;0.90;;;;;;;;;;5114754;28;20620;-56
2022/04/08 09:15:23;;;;;;;0.60;0.60;;;;;;;;;;5107681;28;20200;-56
2022/04/08 09:17:51;;;;;;;1.23;0.60;;;;;;;;;;5094872;28;20211;-56
2022/04/08 09:20:19;;;;;;;1.05;0.73;;;;;;;;;;5094699;28;20200;-57
2022/04/08 09:22:55;;;;;;;1.15;0.77;;;;;;;;;;5096996;28;21026;-56
2022/04/08 09:25:25;;;;;;;0.80;0.68;;;;;;;;;;5106347;28;20578;-57
2022/04/08 09:27:57;;;;;;;0.85;0.60;;;;;;;;;;5100269;28;20195;-56
2022/04/08 09:30:25;;;;;;;0.60;0.60;;;;;;;;;;5097989;28;20648;-57
2022/04/08 09:32:54;;;;;;;1.00;0.90;;;;;;;;;;5113753;28;20207;-56
2022/04/08 09:35:23;;;;;;;0.80;0.70;;;;;;;;;;5112716;28;20206;-58
2022/04/08 09:38:01;;;;;;;0.95;0.75;;;;;;;;;;5109435;28;20227;-57
2022/04/08 09:40:36;;;;;;;0.95;0.70;;;;;;;;;;5105527;28;20195;-56
2022/04/08 09:43:05;;;;;;;1.13;0.80;;;;;;;;;;5113317;28;20230;-56
2022/04/08 09:45:34;;;;;;;0.65;0.65;;;;;;;;;;5112315;28;20214;-57
2022/04/08 09:48:01;;;;;;;1.10;0.80;;;;;;;;;;5112245;28;20203;-57
2022/04/08 09:50:29;;;;;;;0.70;0.60;;;;;;;;;;5111657;28;20211;-57
2022/04/08 09:52:57;;;;;;;0.88;0.70;;;;;;;;;;5113345;28;20502;-57
2022/04/08 09:55:25;;;;;;;1.05;0.82;;;;;;;;;;5113017;28;20222;-57
2022/04/08 09:57:54;;;;;;;1.70;0.82;;;;;;;;;;5107752;28;20202;-57
2022/04/08 10:00:23;;;;;;;0.70;0.70;;;;;;;;;;5113855;28;20606;-57
2022/04/08 10:02:51;;;;;;;0.90;0.70;;;;;;;;;;5102892;28;20199;-57
2022/04/08 10:05:20;;;;;;;1.05;0.85;;;;;;;;;;5092230;28;20200;-57
2022/04/08 10:07:49;;;;;;;1.15;0.60;;;;;;;;;;5091873;28;20239;-57
2022/04/08 10:10:21;;;;;;;1.80;0.70;;;;;;;;;;5091466;28;20204;-57
2022/04/08 10:12:55;;;;;;;0.93;0.60;;;;;;;;;;5092369;28;20196;-57
2022/04/08 10:15:27;;;;;;;2.10;0.90;;;;;;;;;;5091772;28;20210;-57
2022/04/08 10:17:59;;;;;;;0.80;0.80;;;;;;;;;;5093182;28;20203;-57
2022/04/08 10:20:27;;;;;;;1.48;0.80;;;;;;;;;;5094452;28;20224;-56
2022/04/08 10:23:04;;;;;;;1.40;0.70;;;;;;;;;;5113426;28;20626;-57
2022/04/08 10:25:36;;;;;;;1.05;0.73;;;;;;;;;;5111414;28;20195;-57
2022/04/08 10:28:04;;;;;;;1.25;0.65;;;;;;;;;;5109938;28;20203;-57
2022/04/08 10:30:34;;;;;;;1.00;0.90;;;;;;;;;;5091164;28;20200;-57
2022/04/08 10:33:02;;;;;;;0.68;0.63;;;;;;;;;;5090936;28;20211;-57
2022/04/08 10:35:30;;;;;;;1.13;0.70;;;;;;;;;;5090898;28;20211;-58
2022/04/08 10:37:58;;;;;;;0.65;0.63;;;;;;;;;;5091318;28;20208;-57
2022/04/08 10:40:30;;;;;;;0.93;0.77;;;;;;;;;;5097306;28;20206;-57
2022/04/08 10:42:58;;;;;;;0.70;0.70;;;;;;;;;;5111364;28;20227;-58
2022/04/08 10:45:26;;;;;;;1.00;0.70;;;;;;;;;;5112443;28;20191;-57
2022/04/08 10:47:56;;;;;;;0.70;0.70;;;;;;;;;;5113897;28;20246;-57
2022/04/08 10:50:27;;;;;;;0.82;0.70;;;;;;;;;;5099405;28;20290;-57
2022/04/08 10:53:06;;;;;;;1.38;0.77;;;;;;;;;;5095201;28;20207;-57
2022/04/08 10:55:34;;;;;;;0.70;0.65;;;;;;;;;;5094678;28;20209;-57
2022/04/08 10:58:01;;;;;;;1.27;0.75;;;;;;;;;;5096376;28;20223;-57
2022/04/08 11:00:29;;;;;;;6.95;4.28;;;;;;;;;;5115506;28;20203;-57
2022/04/08 11:02:57;;;;;;;25.08;17.08;;;;;;;;;;5115072;28;20210;-57
2022/04/08 11:05:25;;;;;;;17.23;11.57;;;;;;;;;;5114944;28;20210;-58
2022/04/08 11:07:52;;;;;;;11.40;8.45;;;;;;;;;;5084488;28;20551;-58
2022/04/08 11:10:21;;;;;;;12.23;8.10;;;;;;;;;;5108158;28;20192;-57
2022/04/08 11:12:48;;;;;;;12.07;8.57;;;;;;;;;;5116411;27;20234;-57
2022/04/08 11:15:17;;;;;;;9.48;6.90;;;;;;;;;;5099967;28;20211;-57
2022/04/08 11:17:44;;;;;;;9.38;6.30;;;;;;;;;;5093438;28;20199;-57
2022/04/08 11:20:14;;;;;;;8.30;6.05;;;;;;;;;;5095025;28;20200;-58
2022/04/08 11:22:42;;;;;;;9.07;5.72;;;;;;;;;;5094250;28;20230;-57
2022/04/08 11:25:10;;;;;;;6.85;5.13;;;;;;;;;;5109906;28;20206;-58
2022/04/08 11:27:38;;;;;;;7.32;4.60;;;;;;;;;;5113776;28;20487;-57
2022/04/08 11:30:09;;;;;;;7.25;5.45;;;;;;;;;;5098919;28;20205;-57
2022/04/08 11:32:39;;;;;;;6.57;4.60;;;;;;;;;;5116345;28;20211;-57
2022/04/08 11:35:14;;;;;;;5.80;4.45;;;;;;;;;;5116295;28;20232;-58
2022/04/08 11:37:41;;;;;;;6.65;4.40;;;;;;;;;;5109303;28;20318;-57
2022/04/08 11:40:09;;;;;;;6.43;4.25;;;;;;;;;;5100196;28;20196;-57
2022/04/08 11:42:37;;;;;;;6.10;4.00;;;;;;;;;;5094632;28;20191;-58
2022/04/08 11:45:05;;;;;;;4.80;4.18;;;;;;;;;;5094736;28;20214;-57
2022/04/08 11:47:36;;;;;;;4.93;3.80;;;;;;;;;;5094350;28;20203;-57
2022/04/08 11:50:06;;;;;;;5.22;4.03;;;;;;;;;;5093934;28;20195;-57
2022/04/08 11:52:35;;;;;;;5.35;3.58;;;;;;;;;;5093405;28;20235;-56
2022/04/08 11:55:06;;;;;;;4.88;3.90;;;;;;;;;;5106845;28;20289;-57
2022/04/08 11:57:34;;;;;;;5.63;3.88;;;;;;;;;;5113571;28;20639;-57
2022/04/08 12:00:03;;;;;;;6.13;3.83;;;;;;;;;;5101521;28;20231;-57
2022/04/08 12:02:31;;;;;;;5.85;3.35;;;;;;;;;;5093496;28;20219;-57
2022/04/08 12:04:59;;;;;;;4.80;3.10;;;;;;;;;;5094256;28;20199;-63
2022/04/08 12:07:28;;;;;;;5.47;4.97;;;;;;;;;;5095399;28;20203;-57
2022/04/08 12:09:58;;;;;;;24.20;21.92;;;;;;;;;;5093641;28;20211;-57
2022/04/08 12:12:26;;;;;;;34.05;30.83;;;;;;;;;;5094352;28;20223;-57
2022/04/08 12:14:53;;;;;;;25.88;23.50;;;;;;;;;;5094954;28;20206;-57
2022/04/08 12:17:21;;;;;;;21.52;19.42;;;;;;;;;;5094017;28;20227;-57
2022/04/08 12:19:51;;;;;;;19.35;17.58;;;;;;;;;;5095207;28;20203;-56
2022/04/08 12:22:19;;;;;;;19.60;17.80;;;;;;;;;;5094272;28;20351;-57
2022/04/08 12:24:49;;;;;;;17.55;15.85;;;;;;;;;;5092170;28;20543;-57
2022/04/08 12:27:19;;;;;;;17.92;16.23;;;;;;;;;;5093571;28;20208;-57
2022/04/08 12:29:47;;;;;;;15.90;14.40;;;;;;;;;;5093364;28;20640;-57
2022/04/08 12:32:14;;;;;;;14.48;13.20;;;;;;;;;;5113128;28;20207;-57
2022/04/08 12:34:42;;;;;;;14.10;12.70;;;;;;;;;;5106649;28;20473;-58
2022/04/08 12:37:10;;;;;;;13.10;11.90;;;;;;;;;;5091979;28;20202;-58
2022/04/08 12:39:37;;;;;;;12.93;11.63;;;;;;;;;;5106209;28;20199;-56
2022/04/08 12:42:06;;;;;;;11.68;10.68;;;;;;;;;;5111881;28;20199;-59
2022/04/08 12:44:34;;;;;;;10.68;9.77;;;;;;;;;;5113229;28;20226;-58
2022/04/08 12:47:02;;;;;;;11.18;9.98;;;;;;;;;;5113103;28;20206;-57
2022/04/08 12:49:29;;;;;;;9.60;8.70;;;;;;;;;;5096335;28;20609;-57
2022/04/08 12:51:56;;;;;;;9.02;8.20;;;;;;;;;;5093233;28;20471;-58
2022/04/08 12:54:24;;;;;;;9.43;8.55;;;;;;;;;;5093201;28;20207;-56
2022/04/08 12:56:52;;;;;;;9.70;8.90;;;;;;;;;;5093074;28;20272;-57
2022/04/08 12:59:19;;;;;;;8.25;7.50;;;;;;;;;;5092422;28;20483;-57
2022/04/08 13:01:48;;;;;;;8.73;7.47;;;;;;;;;;5092008;28;20218;-58
2022/04/08 13:04:15;;;;;;;7.78;6.97;;;;;;;;;;5093021;28;20567;-57
2022/04/08 13:06:44;;;;;;;7.38;6.68;;;;;;;;;;5100452;28;20191;-57
2022/04/08 13:09:12;;;;;;;7.03;6.38;;;;;;;;;;5096560;28;20303;-58
2022/04/08 13:11:39;;;;;;;7.22;6.53;;;;;;;;;;5091621;28;20629;-57
2022/04/08 13:14:06;;;;;;;6.78;6.18;;;;;;;;;;5092014;28;20621;-56
2022/04/08 13:16:34;;;;;;;6.70;6.00;;;;;;;;;;5093266;28;20213;-57
2022/04/08 13:19:02;;;;;;;6.78;6.07;;;;;;;;;;5098626;28;20225;-57
2022/04/08 13:21:30;;;;;;;7.32;6.03;;;;;;;;;;5112139;28;20203;-57
2022/04/08 13:23:57;;;;;;;5.70;5.20;;;;;;;;;;5111563;28;20499;-57
2022/04/08 13:26:26;;;;;;;6.03;5.40;;;;;;;;;;5092533;28;20196;-56
2022/04/08 13:28:55;;;;;;;6.10;5.22;;;;;;;;;;5090891;28;20598;-57
2022/04/08 13:31:22;;;;;;;4.93;4.53;;;;;;;;;;5091875;28;20268;-57
2022/04/08 13:33:49;;;;;;;5.15;4.72;;;;;;;;;;5093249;28;20195;-58
2022/04/08 13:36:18;;;;;;;5.00;4.60;;;;;;;;;;5093032;28;20227;-57
2022/04/08 13:38:46;;;;;;;5.03;4.60;;;;;;;;;;5104519;28;20195;-57
2022/04/08 13:41:13;;;;;;;4.40;4.00;;;;;;;;;;5112960;28;20203;-57
2022/04/08 13:43:41;;;;;;;4.57;4.18;;;;;;;;;;5107732;28;20222;-57
2022/04/08 13:46:09;;;;;;;4.47;4.07;;;;;;;;;;5092102;28;20215;-56
2022/04/08 13:48:36;;;;;;;4.47;4.10;;;;;;;;;;5094196;28;20215;-57
2022/04/08 13:51:04;;;;;;;3.95;3.65;;;;;;;;;;5112314;28;20578;-57
2022/04/08 13:53:33;;;;;;;4.20;3.83;;;;;;;;;;5111481;28;20618;-57
2022/04/08 13:56:00;;;;;;;4.70;3.90;;;;;;;;;;5112408;28;20210;-57
2022/04/08 13:58:27;;;;;;;3.67;3.38;;;;;;;;;;5099389;28;20207;-57
2022/04/08 14:00:55;;;;;;;3.70;3.40;;;;;;;;;;5090789;28;20196;-57
2022/04/08 14:03:23;;;;;;;3.67;3.38;;;;;;;;;;5090227;28;20224;-58
2022/04/08 14:05:50;;;;;;;3.50;3.20;;;;;;;;;;5092611;28;20457;-57
2022/04/08 14:08:17;;;;;;;3.65;3.35;;;;;;;;;;5092641;28;20203;-57
2022/04/08 14:10:46;;;;;;;2.92;2.72;;;;;;;;;;5091313;28;20499;-57
2022/04/08 14:13:14;;;;;;;4.32;3.15;;;;;;;;;;5091195;28;20352;-57
2022/04/08 14:15:41;;;;;;;3.30;3.00;;;;;;;;;;5091535;28;20415;-57
2022/04/08 14:18:09;;;;;;;2.97;2.67;;;;;;;;;;5090243;28;20559;-57
2022/04/08 14:20:37;;;;;;;3.33;3.03;;;;;;;;;;5092331;28;20212;-57
2022/04/08 14:23:05;;;;;;;2.70;2.50;;;;;;;;;;5095174;28;20200;-57
2022/04/08 14:25:32;;;;;;;2.92;2.72;;;;;;;;;;5095483;28;20259;-57
2022/04/08 14:28:01;;;;;;;2.63;2.42;;;;;;;;;;5095174;28;20213;-57
2022/04/08 14:30:29;;;;;;;2.47;2.28;;;;;;;;;;5096396;28;20219;-57
2022/04/08 14:32:57;;;;;;;3.05;2.47;;;;;;;;;;5095740;28;20219;-57
2022/04/08 14:35:24;;;;;;;2.65;2.40;;;;;;;;;;5094108;28;20204;-57
2022/04/08 14:37:51;;;;;;;2.35;2.25;;;;;;;;;;5097501;28;20211;-57
2022/04/08 14:40:19;;;;;;;2.50;2.30;;;;;;;;;;5109980;28;20574;-57
2022/04/08 14:42:46;;;;;;;2.53;2.33;;;;;;;;;;5096024;28;20559;-56
2022/04/08 14:45:15;;;;;;;2.28;2.08;;;;;;;;;;5095082;28;20199;-57